Time;durP1;ratioP1;P1;durP2;ratioP2;P2;SDS_P1;SDS_P2;PMS_P1;PMS_P2;Temp;Humidity;BMP_temperature;BMP_pressure;BME280_temperature;BME280_humidity;BME280_pressure;Samples;Min_cycle;Max_cycle;Signal;HPM_P1;HPM_P2
2023/10/20 00:00:14;;;;;;;7.60;6.90;;;16.30;99.90;;;;;;5012916;28;20205;-73
2023/10/20 00:02:41;;;;;;;7.50;6.80;;;16.30;99.90;;;;;;5012819;28;20456;-73
2023/10/20 00:05:08;;;;;;;9.27;8.17;;;16.30;99.90;;;;;;5012204;28;20438;-73
2023/10/20 00:07:37;;;;;;;7.13;6.27;;;16.30;99.90;;;;;;5012870;28;20487;-73
2023/10/20 00:10:03;;;;;;;7.47;6.87;;;16.20;99.90;;;;;;5012358;28;20497;-74
2023/10/20 00:12:30;;;;;;;14.83;6.60;;;16.20;99.90;;;;;;5012488;28;20449;-72
2023/10/20 00:14:55;;;;;;;7.87;7.17;;;16.20;99.90;;;;;;5012387;28;20487;-73
2023/10/20 00:17:21;;;;;;;7.47;6.83;;;16.20;99.90;;;;;;5012656;28;20418;-73
2023/10/20 00:19:47;;;;;;;6.70;6.10;;;16.30;99.90;;;;;;5012409;28;20170;-72
2023/10/20 00:22:13;;;;;;;7.40;6.57;;;16.30;99.90;;;;;;5012317;28;20597;-73
2023/10/20 00:24:39;;;;;;;7.37;6.77;;;16.30;99.90;;;;;;5012285;28;20414;-73
2023/10/20 00:27:04;;;;;;;8.10;7.37;;;16.20;99.90;;;;;;5012072;28;20257;-73
2023/10/20 00:29:30;;;;;;;9.70;8.70;;;16.20;99.90;;;;;;5012263;28;20265;-73
2023/10/20 00:31:55;;;;;;;7.70;7.00;;;16.20;99.90;;;;;;5012142;28;20191;-73
2023/10/20 00:34:21;;;;;;;9.20;8.40;;;16.20;99.90;;;;;;5012240;28;20175;-72
2023/10/20 00:36:46;;;;;;;12.50;11.30;;;16.00;99.90;;;;;;5012167;28;20215;-73
2023/10/20 00:39:12;;;;;;;11.73;10.63;;;16.10;99.90;;;;;;5012265;28;20163;-73
2023/10/20 00:41:38;;;;;;;9.77;7.57;;;16.10;99.90;;;;;;5013222;28;20164;-73
2023/10/20 00:44:04;;;;;;;8.77;7.97;;;16.10;99.90;;;;;;5011284;28;20245;-73
2023/10/20 00:46:31;;;;;;;7.87;7.27;;;16.10;99.90;;;;;;5012181;28;20198;-73
2023/10/20 00:48:57;;;;;;;7.43;6.73;;;16.10;99.90;;;;;;5011919;28;20183;-73
2023/10/20 00:51:24;;;;;;;6.83;6.23;;;16.10;99.90;;;;;;5012121;28;20956;-73
2023/10/20 00:53:50;;;;;;;7.07;6.37;;;16.10;99.90;;;;;;5011612;28;20414;-73
2023/10/20 00:56:17;;;;;;;9.00;8.10;;;16.00;99.90;;;;;;5012048;28;20495;-73
2023/10/20 00:58:43;;;;;;;9.30;8.30;;;16.10;99.90;;;;;;5012024;28;20487;-73
2023/10/20 01:01:09;;;;;;;12.10;9.50;;;16.10;99.90;;;;;;5012007;28;20405;-72
2023/10/20 01:03:35;;;;;;;9.77;8.73;;;16.10;99.90;;;;;;5012136;28;20224;-72
2023/10/20 01:06:03;;;;;;;11.80;10.70;;;16.00;99.90;;;;;;5011837;28;20216;-73
2023/10/20 01:08:28;;;;;;;10.53;9.53;;;15.90;99.90;;;;;;5012126;28;20428;-73
2023/10/20 01:10:54;;;;;;;10.03;9.13;;;16.00;99.90;;;;;;5012158;28;20413;-73
2023/10/20 01:13:22;;;;;;;10.50;9.60;;;16.00;99.90;;;;;;5011843;28;20198;-73
2023/10/20 01:15:49;;;;;;;12.30;11.10;;;16.10;99.90;;;;;;5011858;28;20214;-72
2023/10/20 01:18:14;;;;;;;10.03;9.03;;;16.10;99.90;;;;;;5011723;28;20408;-73
2023/10/20 01:20:40;;;;;;;9.27;8.47;;;16.10;99.90;;;;;;5010884;28;20461;-72
2023/10/20 01:23:06;;;;;;;9.90;8.30;;;16.10;99.90;;;;;;5015183;28;20183;-73
2023/10/20 01:25:31;;;;;;;8.47;7.73;;;16.10;99.90;;;;;;5013910;28;20206;-73
2023/10/20 01:27:58;;;;;;;9.37;8.57;;;16.20;99.90;;;;;;5015302;28;20252;-73
2023/10/20 01:30:25;;;;;;;8.20;7.40;;;16.20;99.90;;;;;;5014098;28;20311;-73
2023/10/20 01:32:50;;;;;;;8.60;7.60;;;16.20;99.90;;;;;;4996589;28;20865;-73
2023/10/20 01:35:16;;;;;;;11.80;10.60;;;16.10;99.90;;;;;;5005829;28;20518;-71
2023/10/20 01:37:42;;;;;;;7.53;6.80;;;16.10;99.90;;;;;;4981753;28;20309;-71
2023/10/20 01:40:09;;;;;;;5.80;5.40;;;16.10;99.90;;;;;;5014211;28;20173;-71
2023/10/20 01:42:36;;;;;;;7.57;6.97;;;16.10;99.90;;;;;;4997501;28;20421;-71
2023/10/20 01:45:02;;;;;;;10.30;5.23;;;16.10;99.90;;;;;;5013448;28;20412;-71
2023/10/20 01:47:28;;;;;;;6.90;5.60;;;16.00;99.90;;;;;;4997750;28;20413;-71
2023/10/20 01:49:53;;;;;;;6.40;5.80;;;16.00;99.90;;;;;;4997239;28;20409;-71
2023/10/20 01:52:19;;;;;;;5.40;4.90;;;16.00;99.90;;;;;;5013616;28;20194;-71
2023/10/20 01:54:46;;;;;;;5.83;5.03;;;15.90;99.90;;;;;;5015021;28;20233;-72
2023/10/20 01:57:11;;;;;;;6.63;5.80;;;15.90;99.90;;;;;;4997299;28;20228;-72
2023/10/20 01:59:37;;;;;;;7.50;6.90;;;15.90;99.90;;;;;;5014971;28;20411;-71
2023/10/20 02:02:03;;;;;;;5.63;5.00;;;15.90;99.90;;;;;;5013468;28;20667;-72
2023/10/20 02:04:30;;;;;;;6.40;5.80;;;15.90;99.90;;;;;;4981064;28;20567;-72
2023/10/20 02:06:56;;;;;;;4.30;3.90;;;15.80;99.90;;;;;;5023970;23;21053;-72
2023/10/20 02:09:25;;;;;;;5.73;5.23;;;15.90;99.90;;;;;;5017583;28;20472;-72
2023/10/20 02:11:51;;;;;;;4.57;4.00;;;15.90;99.90;;;;;;5017573;28;20679;-72
2023/10/20 02:14:17;;;;;;;4.07;3.70;;;15.80;99.90;;;;;;5017362;28;20916;-73
2023/10/20 02:16:43;;;;;;;5.37;3.97;;;15.80;99.90;;;;;;5017106;28;20530;-72
2023/10/20 02:19:10;;;;;;;4.60;3.90;;;15.90;99.90;;;;;;5017437;28;20264;-73
2023/10/20 02:21:36;;;;;;;4.70;4.30;;;15.90;99.90;;;;;;5017171;28;20178;-73
2023/10/20 02:24:03;;;;;;;6.10;5.60;;;15.90;99.90;;;;;;5017202;28;20422;-72
2023/10/20 02:26:28;;;;;;;5.83;5.23;;;16.00;99.90;;;;;;5017755;28;20499;-73
2023/10/20 02:28:54;;;;;;;4.47;4.07;;;16.00;99.90;;;;;;5017704;28;20819;-73
2023/10/20 02:31:20;;;;;;;5.90;5.40;;;16.00;99.90;;;;;;5017640;28;20258;-73
2023/10/20 02:33:46;;;;;;;5.73;4.57;;;16.00;99.90;;;;;;5016606;28;20176;-72
2023/10/20 02:36:17;;;;;;;9.37;4.57;;;16.00;99.90;;;;;;5016839;28;20201;-72
2023/10/20 02:38:43;;;;;;;6.97;6.27;;;15.90;99.90;;;;;;5017211;28;20427;-73
2023/10/20 02:41:08;;;;;;;5.70;5.17;;;15.90;99.90;;;;;;5017203;28;20412;-73
2023/10/20 02:43:34;;;;;;;4.60;4.20;;;15.90;99.90;;;;;;5017048;28;20435;-73
2023/10/20 02:46:00;;;;;;;4.20;3.90;;;15.80;99.90;;;;;;5017232;28;20205;-73
2023/10/20 02:48:27;;;;;;;4.60;4.10;;;15.90;99.90;;;;;;5016857;28;20205;-73
2023/10/20 02:50:52;;;;;;;3.93;3.63;;;15.90;99.90;;;;;;5016844;28;20446;-73
2023/10/20 02:53:18;;;;;;;5.43;4.33;;;15.90;99.90;;;;;;5016708;28;20471;-73
2023/10/20 02:55:44;;;;;;;4.53;3.90;;;15.90;99.90;;;;;;5016623;28;20427;-72
2023/10/20 02:58:11;;;;;;;4.23;3.83;;;15.90;99.90;;;;;;5016504;28;20164;-73
2023/10/20 03:00:50;;;;;;;5.50;3.70;;;15.90;99.90;;;;;;5016827;28;20502;-73
2023/10/20 03:03:17;;;;;;;6.33;3.63;;;15.90;99.90;;;;;;5016925;28;20931;-73
2023/10/20 03:05:43;;;;;;;4.13;3.70;;;15.90;99.90;;;;;;5016731;28;20480;-71
2023/10/20 03:08:10;;;;;;;7.17;6.47;;;15.90;99.90;;;;;;5017021;28;20468;-73
2023/10/20 03:10:36;;;;;;;9.10;7.10;;;15.80;99.90;;;;;;5016929;28;20501;-73
2023/10/20 03:13:04;;;;;;;7.20;6.47;;;15.70;99.90;;;;;;5016982;28;20464;-73
2023/10/20 03:15:32;;;;;;;8.00;7.10;;;15.70;99.90;;;;;;5017009;28;20459;-73
2023/10/20 03:18:01;;;;;;;7.47;6.83;;;15.70;99.90;;;;;;5016952;28;20417;-73
2023/10/20 03:20:30;;;;;;;11.07;8.43;;;15.70;99.90;;;;;;5017002;28;20417;-73
2023/10/20 03:22:55;;;;;;;8.40;7.60;;;15.80;99.90;;;;;;5016851;28;20419;-73
2023/10/20 03:25:21;;;;;;;10.47;9.30;;;15.80;99.90;;;;;;5016504;28;20412;-73
2023/10/20 03:27:48;;;;;;;9.30;8.40;;;15.80;99.90;;;;;;5016847;28;20179;-73
2023/10/20 03:30:17;;;;;;;9.60;7.80;;;15.90;99.90;;;;;;5016497;28;20829;-73
2023/10/20 03:32:45;;;;;;;9.47;8.57;;;15.90;99.90;;;;;;5016167;28;20498;-73
2023/10/20 03:35:12;;;;;;;7.30;6.60;;;15.90;99.90;;;;;;5015680;28;20408;-73
2023/10/20 03:37:38;;;;;;;6.87;6.23;;;15.90;99.90;;;;;;5016859;28;20449;-73
2023/10/20 03:40:16;;;;;;;7.60;6.40;;;16.00;99.90;;;;;;5015865;28;20431;-73
2023/10/20 03:42:43;;;;;;;5.83;5.23;;;16.00;99.90;;;;;;5015956;28;20423;-73
2023/10/20 03:45:10;;;;;;;7.53;6.23;;;16.00;99.90;;;;;;5015136;28;20404;-73
2023/10/20 03:47:39;;;;;;;7.17;6.47;;;15.90;99.90;;;;;;5015711;28;20417;-73
2023/10/20 03:50:14;;;;;;;7.10;6.50;;;15.90;99.90;;;;;;5033607;28;20405;-73
2023/10/20 03:52:41;;;;;;;6.80;6.10;;;15.90;99.90;;;;;;5015758;28;20445;-73
2023/10/20 03:55:10;;;;;;;6.53;5.93;;;16.00;99.90;;;;;;5015732;28;20412;-73
2023/10/20 03:57:42;;;;;;;7.40;6.63;;;16.00;99.90;;;;;;5015704;28;20503;-73
2023/10/20 04:00:21;;;;;;;6.97;6.33;;;16.00;99.90;;;;;;5016498;28;20895;-73
2023/10/20 04:02:47;;;;;;;7.30;6.20;;;16.00;99.90;;;;;;5015441;28;20423;-73
2023/10/20 04:05:14;;;;;;;6.80;5.70;;;16.00;99.90;;;;;;5015326;28;20406;-73
2023/10/20 04:07:41;;;;;;;6.93;5.90;;;16.00;99.90;;;;;;5016417;28;20487;-72
2023/10/20 04:10:07;;;;;;;8.47;6.30;;;16.00;99.90;;;;;;5015333;28;20420;-72
2023/10/20 04:12:33;;;;;;;8.60;7.23;;;16.00;99.90;;;;;;5015588;28;20985;-71
2023/10/20 04:14:59;;;;;;;8.50;7.80;;;15.90;99.90;;;;;;5015249;28;20420;-72
2023/10/20 04:17:24;;;;;;;9.57;7.60;;;15.90;99.90;;;;;;5015272;28;20638;-72
2023/10/20 04:19:50;;;;;;;9.37;7.20;;;15.90;99.90;;;;;;5015644;28;20259;-73
2023/10/20 04:22:16;;;;;;;8.47;7.37;;;15.90;99.90;;;;;;5015413;28;20653;-72
2023/10/20 04:24:44;;;;;;;8.33;7.10;;;16.00;99.90;;;;;;5015222;28;20183;-73
2023/10/20 04:27:21;;;;;;;11.20;10.07;;;15.90;99.90;;;;;;5015176;28;20439;-72
2023/10/20 04:55:04;;;;;;;11.90;9.13;;;15.90;99.90;;;;;;5032735;28;20586;-73
2023/10/20 04:59:36;;;;;;;10.27;9.37;;;15.80;99.90;;;;;;5037261;28;20387;-72
2023/10/20 05:02:32;;;;;;;9.57;8.63;;;15.80;99.90;;;;;;5018717;28;20413;-72
2023/10/20 05:05:01;;;;;;;11.27;8.47;;;15.80;99.90;;;;;;5018843;28;20523;-72
2023/10/20 05:07:28;;;;;;;7.60;6.90;;;15.80;99.90;;;;;;5018523;28;20496;-72
2023/10/20 05:09:57;;;;;;;9.20;8.30;;;15.80;99.90;;;;;;5018550;28;20412;-72
2023/10/20 05:12:23;;;;;;;8.60;7.80;;;15.80;99.90;;;;;;5018480;28;20447;-72
2023/10/20 05:14:49;;;;;;;9.23;8.33;;;15.70;99.90;;;;;;5018320;28;20410;-72
2023/10/20 05:17:17;;;;;;;9.53;8.63;;;15.70;99.90;;;;;;5018459;28;20667;-72
2023/10/20 05:19:43;;;;;;;8.00;7.30;;;15.60;99.90;;;;;;5018352;28;20412;-72
2023/10/20 05:22:09;;;;;;;8.80;8.00;;;15.60;99.90;;;;;;5018466;28;20419;-72
2023/10/20 05:24:35;;;;;;;8.20;7.40;;;15.60;99.90;;;;;;5018347;28;20413;-73
2023/10/20 05:27:01;;;;;;;8.87;8.03;;;15.60;99.90;;;;;;5018129;28;20279;-72
2023/10/20 05:29:26;;;;;;;9.30;8.40;;;15.60;99.90;;;;;;5017546;28;20184;-72
2023/10/20 05:31:52;;;;;;;8.87;8.00;;;15.50;99.90;;;;;;5018089;28;20194;-72
2023/10/20 05:34:18;;;;;;;10.83;8.97;;;15.50;99.90;;;;;;5017958;28;20170;-72
2023/10/20 05:36:44;;;;;;;9.47;8.60;;;15.40;99.90;;;;;;5018086;28;20444;-71
2023/10/20 05:39:13;;;;;;;12.07;10.33;;;15.30;99.90;;;;;;5018172;28;20670;-72
2023/10/20 05:41:39;;;;;;;11.73;8.07;;;15.30;99.90;;;;;;5018030;28;20417;-72
2023/10/20 05:44:06;;;;;;;8.03;7.23;;;15.30;99.90;;;;;;5001617;28;20423;-73
2023/10/20 05:46:32;;;;;;;9.30;8.40;;;15.40;99.90;;;;;;5017647;28;20430;-73
2023/10/20 05:48:57;;;;;;;8.80;7.90;;;15.40;99.90;;;;;;5017986;28;20413;-73
2023/10/20 05:51:23;;;;;;;9.37;8.50;;;15.50;99.90;;;;;;5017968;28;20340;-73
2023/10/20 05:53:49;;;;;;;8.73;7.80;;;15.40;99.90;;;;;;5035442;28;20720;-71
2023/10/20 05:56:14;;;;;;;7.97;7.17;;;15.30;99.90;;;;;;5017451;28;20190;-73
2023/10/20 05:58:40;;;;;;;10.20;7.67;;;15.30;99.90;;;;;;5017664;28;20315;-71
2023/10/20 06:01:12;;;;;;;8.57;7.50;;;15.40;99.90;;;;;;5018790;28;20593;-72
2023/10/20 06:03:40;;;;;;;8.60;7.30;;;15.50;99.90;;;;;;5017607;28;20190;-72
2023/10/20 06:06:06;;;;;;;7.60;6.60;;;15.50;99.90;;;;;;5017238;28;20965;-72
2023/10/20 06:08:31;;;;;;;7.90;6.30;;;15.60;99.90;;;;;;5017145;28;20413;-73
2023/10/20 06:11:02;;;;;;;10.20;8.67;;;15.60;99.90;;;;;;5017585;28;20170;-72
2023/10/20 06:13:35;;;;;;;8.23;7.40;;;15.60;99.90;;;;;;5018293;28;20200;-74
2023/10/20 06:16:11;;;;;;;6.77;6.17;;;15.50;99.90;;;;;;5017268;28;20938;-73
2023/10/20 06:18:37;;;;;;;7.87;7.17;;;15.50;99.90;;;;;;5016962;28;20414;-74
2023/10/20 06:21:11;;;;;;;8.50;7.60;;;15.40;99.90;;;;;;5016874;28;20507;-73
2023/10/20 06:23:36;;;;;;;11.30;9.50;;;15.40;99.90;;;;;;5017098;28;20410;-72
2023/10/20 06:26:02;;;;;;;8.57;7.80;;;15.50;99.90;;;;;;5017135;28;20458;-72
2023/10/20 06:28:28;;;;;;;7.47;6.87;;;15.40;99.90;;;;;;5017221;28;20176;-73
2023/10/20 06:30:57;;;;;;;10.53;9.33;;;15.30;99.90;;;;;;5016622;28;20544;-72
2023/10/20 06:33:24;;;;;;;7.83;7.13;;;15.20;99.90;;;;;;5016767;28;20293;-72
2023/10/20 06:35:53;;;;;;;7.10;6.50;;;15.20;99.90;;;;;;5016859;28;20463;-72
2023/10/20 06:39:13;;;;;;;6.70;6.10;;;15.20;99.90;;;;;;5016766;28;20417;-72
2023/10/20 06:41:09;;;;;;;9.97;8.00;;;15.30;99.90;;;;;;5023751;28;20489;-72
2023/10/20 06:43:34;;;;;;;8.73;7.90;;;15.20;99.90;;;;;;5016831;28;20449;-73
2023/10/20 06:46:00;;;;;;;8.57;7.17;;;15.20;99.90;;;;;;5016460;28;20699;-72
2023/10/20 06:48:27;;;;;;;7.33;6.73;;;15.20;99.90;;;;;;5016368;28;20177;-72
2023/10/20 06:50:53;;;;;;;7.30;6.60;;;15.30;99.90;;;;;;5016556;28;20411;-73
2023/10/20 06:53:19;;;;;;;10.10;9.20;;;15.40;99.90;;;;;;5016721;28;20446;-72
2023/10/20 06:55:48;;;;;;;7.77;7.10;;;15.40;99.90;;;;;;5016529;28;20196;-71
2023/10/20 06:58:18;;;;;;;9.63;7.07;;;15.50;99.90;;;;;;5016695;28;20173;-71
2023/10/20 07:00:47;;;;;;;6.80;6.10;;;15.40;99.90;;;;;;5016377;28;20926;-70
2023/10/20 07:03:14;;;;;;;9.30;8.40;;;15.50;99.90;;;;;;5016985;28;20421;-72
2023/10/20 07:05:42;;;;;;;8.07;7.27;;;15.50;99.90;;;;;;5016213;28;20467;-72
2023/10/20 07:08:08;;;;;;;9.17;7.90;;;15.50;99.90;;;;;;5016623;28;20441;-72
2023/10/20 07:10:37;;;;;;;8.30;7.20;;;15.60;99.90;;;;;;5016209;28;20494;-72
2023/10/20 07:13:07;;;;;;;7.97;7.23;;;15.70;99.90;;;;;;5015695;28;20201;-72
2023/10/20 07:15:34;;;;;;;8.40;7.57;;;15.80;99.90;;;;;;5033579;28;20432;-72
2023/10/20 07:18:01;;;;;;;10.10;9.00;;;15.90;99.90;;;;;;5015831;28;20416;-72
2023/10/20 07:20:27;;;;;;;12.03;9.40;;;15.90;99.90;;;;;;5015272;28;20453;-72
2023/10/20 07:22:52;;;;;;;8.30;6.60;;;15.90;99.90;;;;;;5016127;28;20415;-72
2023/10/20 07:25:18;;;;;;;9.17;8.40;;;15.90;99.90;;;;;;5018503;28;20164;-73
2023/10/20 07:27:44;;;;;;;8.13;7.40;;;16.00;99.90;;;;;;5019524;28;20174;-73
2023/10/20 07:30:10;;;;;;;11.30;8.70;;;16.00;99.90;;;;;;5018716;28;20416;-72
2023/10/20 07:32:37;;;;;;;8.87;8.07;;;16.00;99.90;;;;;;5037110;28;20202;-72
2023/10/20 07:35:03;;;;;;;8.90;7.40;;;16.00;99.90;;;;;;5016016;28;20413;-72
2023/10/20 07:37:29;;;;;;;8.93;8.07;;;16.10;99.90;;;;;;4996238;28;20910;-72
2023/10/20 07:39:55;;;;;;;9.50;8.50;;;16.20;99.90;;;;;;4996393;28;20403;-72
2023/10/20 07:42:21;;;;;;;7.40;6.70;;;16.20;99.90;;;;;;4996303;28;20421;-72
2023/10/20 07:44:47;;;;;;;7.83;7.23;;;16.30;99.90;;;;;;4996310;28;20277;-72
2023/10/20 07:47:13;;;;;;;7.40;6.70;;;16.30;99.90;;;;;;5033836;28;20249;-70
2023/10/20 07:49:39;;;;;;;9.87;8.87;;;16.40;99.90;;;;;;5015648;28;20442;-71
2023/10/20 07:52:05;;;;;;;10.20;9.30;;;16.50;99.90;;;;;;5015495;28;20445;-70
2023/10/20 07:54:30;;;;;;;9.77;8.87;;;16.50;99.90;;;;;;5015576;28;20833;-71
2023/10/20 07:56:56;;;;;;;11.13;10.03;;;16.50;99.90;;;;;;5015505;28;20696;-71
2023/10/20 07:59:22;;;;;;;8.10;7.30;;;16.50;99.90;;;;;;4999157;28;20167;-72
2023/10/20 08:01:48;;;;;;;8.33;7.57;;;16.50;99.90;;;;;;5015485;28;20471;-71
2023/10/20 08:04:13;;;;;;;8.40;7.40;;;16.60;99.90;;;;;;5016460;28;20174;-71
2023/10/20 08:06:39;;;;;;;10.47;9.47;;;16.60;99.90;;;;;;5038581;23;20631;-72
2023/10/20 08:09:04;;;;;;;10.83;8.80;;;16.50;99.90;;;;;;5030499;28;20229;-72
2023/10/20 08:11:30;;;;;;;9.93;9.00;;;16.60;99.90;;;;;;5031079;28;20180;-74
2023/10/20 08:13:57;;;;;;;10.00;9.00;;;16.70;99.90;;;;;;5029895;28;20252;-73
2023/10/20 08:16:23;;;;;;;10.33;9.00;;;16.80;99.90;;;;;;5030458;28;20187;-74
2023/10/20 08:18:49;;;;;;;12.73;11.40;;;16.90;99.90;;;;;;5002405;28;20429;-72
2023/10/20 08:21:16;;;;;;;11.67;10.60;;;16.70;99.90;;;;;;5010278;28;20309;-73
2023/10/20 08:23:42;;;;;;;11.87;10.60;;;16.60;99.90;;;;;;5010311;28;20190;-73
2023/10/20 08:26:15;;;;;;;12.13;10.93;;;16.60;99.90;;;;;;5021565;28;20488;-73
2023/10/20 08:28:41;;;;;;;10.47;9.43;;;16.50;99.90;;;;;;5014048;28;20579;-73
2023/10/20 08:31:16;;;;;;;12.33;11.13;;;16.60;99.90;;;;;;5016085;28;20444;-73
2023/10/20 08:33:42;;;;;;;12.10;10.90;;;16.70;99.90;;;;;;5018333;28;20277;-73
2023/10/20 08:36:11;;;;;;;11.63;10.43;;;16.60;99.90;;;;;;5007889;28;20431;-72
2023/10/20 08:38:38;;;;;;;10.60;9.70;;;16.70;99.90;;;;;;4998308;28;20419;-73
2023/10/20 08:41:09;;;;;;;12.93;11.70;;;16.70;99.90;;;;;;4999043;28;20442;-73
2023/10/20 08:43:36;;;;;;;13.57;12.23;;;16.70;99.90;;;;;;5016181;28;20778;-73
2023/10/20 08:46:04;;;;;;;11.17;10.17;;;16.60;99.90;;;;;;4991623;28;20445;-73
2023/10/20 08:48:31;;;;;;;10.53;9.67;;;17.00;99.90;;;;;;5017888;28;20595;-73
2023/10/20 08:50:59;;;;;;;11.00;10.00;;;17.50;99.90;;;;;;5017743;28;20508;-73
2023/10/20 08:53:26;;;;;;;13.90;12.50;;;17.80;99.90;;;;;;5017633;28;20464;-73
2023/10/20 08:55:52;;;;;;;12.07;11.07;;;17.60;99.90;;;;;;4993675;28;20434;-73
2023/10/20 08:58:18;;;;;;;10.67;9.67;;;17.70;99.90;;;;;;4998052;28;20407;-73
2023/10/20 09:00:43;;;;;;;11.53;10.33;;;17.90;99.90;;;;;;4997994;28;20171;-73
2023/10/20 09:03:10;;;;;;;11.80;10.77;;;17.80;99.90;;;;;;4998049;28;20425;-73
2023/10/20 09:05:35;;;;;;;12.07;10.97;;;18.00;99.90;;;;;;5002144;28;20171;-73
2023/10/20 09:08:01;;;;;;;15.40;14.00;;;18.10;99.90;;;;;;5035272;28;20390;-73
2023/10/20 09:10:27;;;;;;;11.63;10.53;;;18.00;99.90;;;;;;5035563;28;20174;-73
2023/10/20 09:12:53;;;;;;;11.90;10.70;;;17.90;99.90;;;;;;5035224;28;20337;-73
2023/10/20 09:15:18;;;;;;;12.17;10.93;;;17.90;99.90;;;;;;5014466;28;20175;-72
2023/10/20 09:17:51;;;;;;;11.77;10.67;;;17.90;99.90;;;;;;4997580;28;20701;-71
2023/10/20 09:20:19;;;;;;;11.97;10.83;;;17.90;99.90;;;;;;4981300;28;20214;-72
2023/10/20 09:22:45;;;;;;;12.10;11.00;;;17.80;99.90;;;;;;4997473;28;20792;-72
2023/10/20 09:25:11;;;;;;;13.33;10.93;;;17.50;99.90;;;;;;4983140;28;20434;-72
2023/10/20 09:27:41;;;;;;;11.17;10.17;;;17.80;99.90;;;;;;4986718;28;20197;-73
2023/10/20 09:30:10;;;;;;;13.27;12.00;;;17.90;99.90;;;;;;4994879;28;20420;-72
2023/10/20 09:32:40;;;;;;;11.70;10.60;;;18.00;99.90;;;;;;4995449;28;20534;-73
2023/10/20 09:35:06;;;;;;;10.27;9.27;;;18.10;99.90;;;;;;4980378;28;20498;-72
2023/10/20 09:37:34;;;;;;;10.97;9.97;;;18.00;99.90;;;;;;5034584;28;20436;-73
2023/10/20 09:40:08;;;;;;;11.17;9.67;;;18.00;99.90;;;;;;5016979;28;20464;-72
2023/10/20 09:42:57;;;;;;;9.60;8.67;;;17.90;99.90;;;;;;5015406;28;20422;-73
2023/10/20 09:45:32;;;;;;;11.10;8.47;;;18.20;99.90;;;;;;5014004;28;20449;-73
2023/10/20 09:48:00;;;;;;;9.57;8.63;;;18.50;99.90;;;;;;5014983;28;20397;-72
2023/10/20 09:50:31;;;;;;;9.10;8.20;;;18.40;99.90;;;;;;4997483;28;20407;-72
2023/10/20 09:52:58;;;;;;;8.30;7.50;;;18.40;99.90;;;;;;5014887;28;20995;-74
2023/10/20 09:55:25;;;;;;;9.80;8.90;;;18.20;99.90;;;;;;4984262;28;20848;-72
2023/10/20 09:57:51;;;;;;;9.13;8.30;;;18.00;99.90;;;;;;5000272;28;20487;-72
2023/10/20 10:00:31;;;;;;;9.30;8.50;;;18.00;99.90;;;;;;5000370;28;20900;-74
2023/10/20 10:02:59;;;;;;;9.33;8.33;;;18.20;99.90;;;;;;5017117;28;20194;-75
2023/10/20 10:05:25;;;;;;;8.93;8.03;;;18.00;99.90;;;;;;5013772;28;20800;-73
2023/10/20 10:08:08;;;;;;;7.53;6.83;;;17.80;99.90;;;;;;4997632;28;20467;-73
2023/10/20 10:10:37;;;;;;;7.10;6.40;;;17.80;99.90;;;;;;4997577;28;20456;-73
2023/10/20 10:13:07;;;;;;;7.40;6.53;;;17.90;99.90;;;;;;4997269;28;21003;-73
2023/10/20 10:15:45;;;;;;;6.43;5.63;;;17.90;99.90;;;;;;5018882;28;20402;-74
2023/10/20 10:18:13;;;;;;;6.80;6.03;;;18.00;99.90;;;;;;5016507;28;20406;-74
2023/10/20 10:20:50;;;;;;;5.60;5.10;;;18.20;99.90;;;;;;5016429;28;20943;-73
2023/10/20 10:23:15;;;;;;;7.73;5.87;;;18.30;99.90;;;;;;5016542;28;20424;-73
2023/10/20 10:25:47;;;;;;;6.00;5.50;;;18.40;99.90;;;;;;5010938;28;20407;-74
2023/10/20 10:28:20;;;;;;;6.03;5.43;;;18.50;99.90;;;;;;4980592;28;20172;-73
2023/10/20 10:30:50;;;;;;;5.13;4.60;;;18.70;99.90;;;;;;5020717;28;20406;-71
2023/10/20 10:33:21;;;;;;;5.50;4.93;;;18.70;99.90;;;;;;5015249;28;20457;-74
2023/10/20 10:35:47;;;;;;;5.73;4.90;;;18.90;99.90;;;;;;5025117;28;20446;-72
2023/10/20 10:38:23;;;;;;;5.33;4.83;;;19.20;99.90;;;;;;5014209;28;20913;-74
2023/10/20 10:40:51;;;;;;;7.00;4.60;;;19.30;99.90;;;;;;4980968;28;20175;-73
2023/10/20 10:43:19;;;;;;;5.90;4.07;;;19.50;99.90;;;;;;4996396;28;20441;-74
2023/10/20 10:45:50;;;;;;;4.73;4.20;;;19.50;99.90;;;;;;5019564;28;20425;-73
2023/10/20 10:48:18;;;;;;;4.87;4.47;;;19.20;99.90;;;;;;5015585;28;20418;-73
2023/10/20 10:50:45;;;;;;;4.80;4.30;;;19.10;99.90;;;;;;5033205;28;20451;-73
2023/10/20 10:53:12;;;;;;;4.60;4.20;;;19.10;99.90;;;;;;5014832;28;20458;-73
2023/10/20 10:55:38;;;;;;;4.33;3.93;;;19.00;99.90;;;;;;5010208;28;20494;-72
2023/10/20 10:58:12;;;;;;;3.73;3.20;;;19.10;99.90;;;;;;5013556;28;20413;-72
2023/10/20 11:00:39;;;;;;;4.00;3.40;;;19.20;99.90;;;;;;4995633;28;20835;-72
2023/10/20 11:03:06;;;;;;;2.77;2.47;;;18.90;99.90;;;;;;4979801;28;20738;-72
2023/10/20 11:05:35;;;;;;;2.97;2.53;;;19.20;99.90;;;;;;4991722;28;20800;-73
2023/10/20 11:08:02;;;;;;;2.10;1.60;;;19.20;99.90;;;;;;4998956;28;20440;-72
2023/10/20 11:10:29;;;;;;;1.60;1.43;;;19.10;99.90;;;;;;5033127;28;20883;-72
2023/10/20 11:12:56;;;;;;;1.53;1.20;;;19.10;99.90;;;;;;5015095;28;20798;-73
2023/10/20 11:15:25;;;;;;;1.33;0.80;;;18.80;99.90;;;;;;5003513;28;20411;-73
2023/10/20 11:17:51;;;;;;;3.43;0.70;;;18.70;99.90;;;;;;4979087;28;20430;-72
2023/10/20 11:20:20;;;;;;;1.63;0.70;;;18.50;99.90;;;;;;5013055;28;20404;-73
2023/10/20 11:22:51;;;;;;;0.97;0.50;;;18.60;99.90;;;;;;5013407;28;20208;-73
2023/10/20 11:25:21;;;;;;;2.20;1.07;;;18.60;99.90;;;;;;5024163;28;20398;-73
2023/10/20 11:27:54;;;;;;;5.50;0.80;;;18.60;99.90;;;;;;4999118;28;20508;-72
2023/10/20 11:30:38;;;;;;;0.80;0.60;;;18.70;99.90;;;;;;5013167;28;20514;-73
2023/10/20 11:33:04;;;;;;;1.47;0.70;;;18.80;99.90;;;;;;4995046;28;20481;-72
2023/10/20 11:35:30;;;;;;;1.23;0.70;;;18.70;99.90;;;;;;5007622;28;20449;-73
2023/10/20 11:37:57;;;;;;;1.00;0.67;;;18.70;99.90;;;;;;5015020;28;20618;-73
2023/10/20 11:40:24;;;;;;;1.07;0.80;;;18.80;99.90;;;;;;5014560;28;20171;-73
2023/10/20 11:42:50;;;;;;;1.03;0.60;;;19.00;99.90;;;;;;5014771;28;20619;-72
2023/10/20 11:45:16;;;;;;;0.90;0.70;;;18.80;99.90;;;;;;5003922;28;20415;-72
2023/10/20 11:47:42;;;;;;;1.20;0.60;;;18.70;99.90;;;;;;5012486;28;20431;-73
2023/10/20 11:50:10;;;;;;;0.90;0.60;;;18.70;99.90;;;;;;4995300;28;20548;-71
2023/10/20 11:52:37;;;;;;;1.23;0.70;;;18.60;99.90;;;;;;4995549;28;20203;-72
2023/10/20 11:55:03;;;;;;;1.10;0.90;;;18.70;99.90;;;;;;5003802;28;20448;-73
2023/10/20 11:57:29;;;;;;;1.07;0.90;;;18.70;99.90;;;;;;5032616;28;20426;-73
2023/10/20 11:59:55;;;;;;;1.10;0.67;;;18.90;99.90;;;;;;4998241;28;20413;-72
2023/10/20 12:02:21;;;;;;;1.00;0.60;;;19.00;99.90;;;;;;5014326;28;20262;-74
2023/10/20 12:04:46;;;;;;;0.93;0.70;;;18.80;99.90;;;;;;4990685;28;20176;-72
2023/10/20 12:07:12;;;;;;;0.80;0.57;;;18.90;99.90;;;;;;4994841;28;20682;-73
2023/10/20 12:09:37;;;;;;;1.10;0.60;;;18.80;99.90;;;;;;4994581;28;20179;-73
2023/10/20 12:12:03;;;;;;;0.80;0.50;;;18.90;99.90;;;;;;5012229;28;20192;-73
2023/10/20 12:14:29;;;;;;;1.07;0.50;;;18.80;99.90;;;;;;4982519;28;20225;-72
2023/10/20 12:16:54;;;;;;;0.80;0.60;;;18.80;99.90;;;;;;5032007;28;20183;-72
2023/10/20 12:19:20;;;;;;;0.90;0.60;;;18.90;99.90;;;;;;5032104;28;20270;-72
2023/10/20 12:21:45;;;;;;;1.00;0.60;;;18.90;99.90;;;;;;4997780;28;20171;-71
2023/10/20 12:24:11;;;;;;;0.80;0.53;;;18.80;99.90;;;;;;5030572;28;20254;-72
2023/10/20 12:26:37;;;;;;;1.03;0.50;;;18.80;99.90;;;;;;4994531;28;20198;-72
2023/10/20 12:29:03;;;;;;;1.60;0.53;;;19.00;99.90;;;;;;4994559;28;20178;-72
2023/10/20 12:31:29;;;;;;;0.80;0.50;;;19.30;99.90;;;;;;4994300;28;20192;-72
2023/10/20 12:33:54;;;;;;;0.70;0.40;;;19.70;99.90;;;;;;5005207;28;20493;-72
2023/10/20 12:36:24;;;;;;;1.53;0.70;;;20.60;99.90;;;;;;5005426;28;20218;-72
2023/10/20 12:38:50;;;;;;;0.80;0.50;;;22.30;99.90;;;;;;5000143;28;20255;-73
2023/10/20 12:41:16;;;;;;;0.80;0.50;;;23.40;99.90;;;;;;4970162;28;20494;-73
2023/10/20 12:43:42;;;;;;;1.47;0.60;;;24.40;99.90;;;;;;5014317;28;20182;-73
2023/10/20 12:46:11;;;;;;;0.80;0.50;;;24.10;99.90;;;;;;4996408;28;20442;-72
2023/10/20 12:48:38;;;;;;;1.33;0.57;;;23.50;99.90;;;;;;4995105;28;20786;-72
2023/10/20 12:51:13;;;;;;;1.20;0.60;;;23.20;99.90;;;;;;4978382;28;20428;-73
2023/10/20 12:53:39;;;;;;;1.73;0.50;;;22.70;99.90;;;;;;4978298;28;20513;-72
2023/10/20 12:56:05;;;;;;;2.27;0.60;;;21.60;99.90;;;;;;5028232;28;20475;-72
2023/10/20 12:58:32;;;;;;;1.07;0.70;;;21.50;99.90;;;;;;5031952;28;20417;-72
2023/10/20 13:00:57;;;;;;;1.77;0.60;;;21.10;99.90;;;;;;5014285;28;20436;-73
2023/10/20 13:03:25;;;;;;;0.90;0.60;;;20.80;99.90;;;;;;5014104;28;20450;-73
2023/10/20 13:05:50;;;;;;;0.93;0.70;;;20.50;99.90;;;;;;5017391;28;20219;-74
2023/10/20 13:08:16;;;;;;;1.13;0.50;;;20.30;99.90;;;;;;4994421;28;20784;-72
2023/10/20 13:10:42;;;;;;;1.60;0.50;;;20.20;99.90;;;;;;5012186;28;20254;-72